Time;durP1;ratioP1;P1;durP2;ratioP2;P2;SDS_P1;SDS_P2;PMS_P1;PMS_P2;Temp;Humidity;BMP_temperature;BMP_pressure;BME280_temperature;BME280_humidity;BME280_pressure;Samples;Min_cycle;Max_cycle;Signal;HPM_P1;HPM_P2
2023/04/07 00:00:54;;;;;;;;;;;;;;;13.20;39.21;100982.84;4971877;27;98351;-65
2023/04/07 00:03:20;;;;;;;;;;;;;;;13.18;39.04;100982.31;4969104;27;98482;-65
2023/04/07 00:05:46;;;;;;;;;;;;;;;13.17;39.21;100983.41;4966687;27;98104;-68
2023/04/07 00:08:12;;;;;;;;;;;;;;;13.14;38.94;100981.22;4969649;27;98396;-65
2023/04/07 00:10:38;;;;;;;;;;;;;;;13.13;38.93;100982.31;4969429;27;128766;-67
2023/04/07 00:13:04;;;;;;;;;;;;;;;13.11;39.00;100978.25;4968192;27;121746;-65
2023/04/07 00:15:30;;;;;;;;;;;;;;;13.07;39.04;100975.28;4970190;27;122640;-67
2023/04/07 00:17:56;;;;;;;;;;;;;;;13.06;39.17;100976.34;4970314;27;124589;-65
2023/04/07 00:20:22;;;;;;;;;;;;;;;13.05;39.15;100982.03;4968461;27;127852;-65
2023/04/07 00:22:48;;;;;;;;;;;;;;;13.02;38.84;100973.38;4953919;28;99711;-67
2023/04/07 00:25:14;;;;;;;;;;;;;;;13.00;39.12;100972.81;4950215;27;122897;-67
2023/04/07 00:27:40;;;;;;;;;;;;;;;12.99;39.14;100978.53;4967975;27;98259;-67
2023/04/07 00:30:06;;;;;;;;;;;;;;;12.96;39.02;100979.06;4968875;27;127815;-67
2023/04/07 00:32:32;;;;;;;;;;;;;;;12.95;39.05;100972.03;4970593;27;122603;-65
2023/04/07 00:34:58;;;;;;;;;;;;;;;12.93;38.99;100977.72;4951085;28;122661;-67
2023/04/07 00:37:24;;;;;;;;;;;;;;;12.91;39.06;100973.66;4967305;27;128622;-68
2023/04/07 00:39:50;;;;;;;;;;;;;;;12.88;39.18;100969.59;4973329;27;98391;-66
2023/04/07 00:42:17;;;;;;;;;;;;;;;12.88;39.04;100966.06;4954656;27;98394;-68
2023/04/07 00:44:43;;;;;;;;;;;;;;;12.87;38.96;100967.16;4970378;27;118030;-67
2023/04/07 00:47:09;;;;;;;;;;;;;;;12.86;39.04;100962.84;4968990;27;127234;-66
2023/04/07 00:49:36;;;;;;;;;;;;;;;12.83;38.95;100961.47;4953556;28;98471;-65
2023/04/07 00:52:02;;;;;;;;;;;;;;;12.82;39.10;100962.56;4972152;27;101072;-65
2023/04/07 00:54:29;;;;;;;;;;;;;;;12.81;39.03;100958.25;4953967;28;102902;-67
2023/04/07 00:56:56;;;;;;;;;;;;;;;12.78;39.14;100956.88;4970758;27;98469;-66
2023/04/07 00:59:22;;;;;;;;;;;;;;;12.77;39.07;100952.56;4955744;27;98708;-67
2023/04/07 01:01:56;;;;;;;;;;;;;;;12.75;38.95;100954.72;4971211;27;120584;-67
2023/04/07 01:04:38;;;;;;;;;;;;;;;12.75;39.00;100956.59;4969107;27;98074;-66
2023/04/07 01:07:17;;;;;;;;;;;;;;;12.72;38.97;100946.31;4968645;27;123832;-65
2023/04/07 01:09:51;;;;;;;;;;;;;;;12.70;39.10;100948.50;4947989;28;122162;-67
2023/04/07 01:12:27;;;;;;;;;;;;;;;12.68;39.11;100947.94;4969319;27;98155;-65
2023/04/07 01:14:59;;;;;;;;;;;;;;;12.66;39.06;100950.94;4934044;28;122526;-67
2023/04/07 01:17:25;;;;;;;;;;;;;;;12.65;38.98;100949.28;4948673;27;98863;-66
2023/04/07 01:19:58;;;;;;;;;;;;;;;12.64;38.82;100946.84;4952582;28;106077;-67
2023/04/07 01:22:41;;;;;;;;;;;;;;;12.63;39.02;100942.53;4954911;27;112635;-68
2023/04/07 01:25:32;;;;;;;;;;;;;;;12.61;38.97;100953.59;4934945;27;98090;-67
2023/04/07 01:28:09;;;;;;;;;;;;;;;12.60;39.08;100943.06;4935202;28;98783;-65
2023/04/07 01:30:37;;;;;;;;;;;;;;;12.59;39.18;100947.66;4970173;27;98226;-67
2023/04/07 01:33:02;;;;;;;;;;;;;;;12.58;39.11;100945.25;4968947;27;126681;-65
2023/04/07 01:35:30;;;;;;;;;;;;;;;12.55;39.07;100935.75;4968965;27;122220;-65
2023/04/07 01:37:56;;;;;;;;;;;;;;;12.52;39.01;100931.69;4941643;28;104025;-65
2023/04/07 01:40:22;;;;;;;;;;;;;;;12.51;39.04;100929.28;4951859;27;98197;-67
2023/04/07 01:42:48;;;;;;;;;;;;;;;12.50;39.09;100924.94;4950791;28;98220;-65
2023/04/07 01:45:15;;;;;;;;;;;;;;;12.48;39.15;100921.69;4966881;27;122812;-65
2023/04/07 01:47:41;;;;;;;;;;;;;;;12.47;39.08;100925.47;4958797;28;98476;-65
2023/04/07 01:50:08;;;;;;;;;;;;;;;12.46;39.19;100926.56;4954121;27;128205;-65
2023/04/07 01:52:35;;;;;;;;;;;;;;;12.43;39.18;100921.69;4948831;28;99524;-67
2023/04/07 01:55:01;;;;;;;;;;;;;;;12.42;38.96;100926.28;4968854;27;98049;-67
2023/04/07 01:57:27;;;;;;;;;;;;;;;12.42;38.99;100925.47;4955339;27;128137;-65
2023/04/07 01:59:53;;;;;;;;;;;;;;;12.40;39.23;100920.31;4970391;27;99166;-65
2023/04/07 02:02:19;;;;;;;;;;;;;;;12.39;39.05;100918.72;4967484;27;106237;-64
2023/04/07 02:04:52;;;;;;;;;;;;;;;12.39;38.95;100920.59;4969274;27;120997;-67
2023/04/07 02:07:37;;;;;;;;;;;;;;;12.37;39.09;100931.66;4957702;27;98737;-65
2023/04/07 02:10:03;;;;;;;;;;;;;;;12.36;39.04;100921.94;4948885;28;127489;-65
2023/04/07 02:12:30;;;;;;;;;;;;;;;12.34;39.01;100915.16;4964497;27;127265;-65
2023/04/07 02:14:55;;;;;;;;;;;;;;;12.34;39.00;100920.56;4970977;27;98088;-66
2023/04/07 02:17:24;;;;;;;;;;;;;;;12.33;38.97;100919.78;4966328;27;127976;-67
2023/04/07 02:19:52;;;;;;;;;;;;;;;12.32;39.01;100915.44;4952021;28;118973;-66
2023/04/07 02:22:18;;;;;;;;;;;;;;;12.29;39.05;100916.78;4969980;27;98055;-67
2023/04/07 02:24:44;;;;;;;;;;;;;;;12.28;39.13;100914.38;4968120;27;122215;-67
2023/04/07 02:27:10;;;;;;;;;;;;;;;12.28;39.00;100908.97;4968853;27;101904;-65
2023/04/07 02:29:36;;;;;;;;;;;;;;;12.28;39.11;100911.66;4970824;27;128747;-65
2023/04/07 02:32:02;;;;;;;;;;;;;;;12.27;39.21;100918.16;4971719;27;127061;-66
2023/04/07 02:34:28;;;;;;;;;;;;;;;12.24;39.07;100911.38;4956920;27;122212;-67
2023/04/07 02:36:54;;;;;;;;;;;;;;;12.24;39.06;100916.78;4969076;27;128562;-65
2023/04/07 02:39:19;;;;;;;;;;;;;;;12.23;39.14;100919.78;4969203;27;127526;-67
2023/04/07 02:41:45;;;;;;;;;;;;;;;12.22;38.86;100915.41;4958373;28;125558;-67
2023/04/07 02:44:11;;;;;;;;;;;;;;;12.20;39.29;100915.69;4972896;27;121620;-67
2023/04/07 02:46:37;;;;;;;;;;;;;;;12.21;39.12;100908.41;4970789;27;126963;-65
2023/04/07 02:49:03;;;;;;;;;;;;;;;12.19;39.08;100911.38;4975045;27;126968;-67
2023/04/07 02:51:30;;;;;;;;;;;;;;;12.18;39.13;100909.75;4972486;27;123099;-67
2023/04/07 02:53:56;;;;;;;;;;;;;;;12.17;39.02;100910.00;4956826;28;98131;-65
2023/04/07 02:56:21;;;;;;;;;;;;;;;12.15;39.28;100904.88;4972075;27;126148;-67
2023/04/07 02:58:47;;;;;;;;;;;;;;;12.15;39.05;100899.47;4970817;27;128476;-67
2023/04/07 03:01:13;;;;;;;;;;;;;;;12.14;39.36;100905.13;4974526;27;99243;-67
2023/04/07 03:03:41;;;;;;;;;;;;;;;12.12;39.16;100905.41;4971793;27;122862;-67
2023/04/07 03:06:07;;;;;;;;;;;;;;;12.11;39.03;100897.59;4970596;27;98387;-65
2023/04/07 03:08:33;;;;;;;;;;;;;;;12.09;39.08;100894.31;4970008;27;99407;-67
2023/04/07 03:10:59;;;;;;;;;;;;;;;12.07;39.11;100899.19;4970532;27;98299;-67
2023/04/07 03:13:25;;;;;;;;;;;;;;;12.07;39.04;100894.59;4970897;27;97961;-67
2023/04/07 03:15:51;;;;;;;;;;;;;;;12.07;39.10;100896.50;4937330;28;100439;-65
2023/04/07 03:18:17;;;;;;;;;;;;;;;12.04;39.13;100893.22;4954980;27;126412;-65
2023/04/07 03:20:43;;;;;;;;;;;;;;;12.05;39.04;100888.63;4973155;27;118635;-65
2023/04/07 03:23:09;;;;;;;;;;;;;;;12.03;39.06;100890.81;4956367;27;100949;-67
2023/04/07 03:25:35;;;;;;;;;;;;;;;12.02;39.06;100887.31;4973483;27;99532;-65
2023/04/07 03:28:01;;;;;;;;;;;;;;;12.02;39.19;100889.16;4974206;27;100099;-67
2023/04/07 03:30:27;;;;;;;;;;;;;;;12.01;38.85;100887.56;4967757;27;98516;-67
2023/04/07 03:32:53;;;;;;;;;;;;;;;12.01;39.07;100885.66;4969790;27;121988;-65
2023/04/07 03:35:19;;;;;;;;;;;;;;;11.99;39.12;100879.72;4969522;27;118011;-67
2023/04/07 03:37:45;;;;;;;;;;;;;;;11.98;39.01;100875.38;4972380;27;101458;-67
2023/04/07 03:40:11;;;;;;;;;;;;;;;11.97;39.10;100878.34;4967089;27;126280;-66
2023/04/07 03:42:37;;;;;;;;;;;;;;;11.96;39.07;100874.84;4970180;27;118925;-67
2023/04/07 03:45:03;;;;;;;;;;;;;;;11.95;38.96;100869.72;4970830;27;128082;-67
2023/04/07 03:47:29;;;;;;;;;;;;;;;11.95;39.11;100869.72;4970708;27;113304;-64
2023/04/07 03:49:55;;;;;;;;;;;;;;;11.94;39.13;100865.38;4970302;27;98255;-67
2023/04/07 03:52:21;;;;;;;;;;;;;;;11.93;39.09;100867.25;4971410;27;98120;-64
2023/04/07 03:54:47;;;;;;;;;;;;;;;11.93;39.24;100866.47;4970018;27;127133;-65
2023/04/07 03:57:13;;;;;;;;;;;;;;;11.93;38.86;100869.16;4975017;27;114583;-67
2023/04/07 03:59:38;;;;;;;;;;;;;;;11.92;39.20;100873.75;4952651;28;98437;-67
2023/04/07 04:02:05;;;;;;;;;;;;;;;11.91;39.11;100871.34;4951930;28;122376;-64
2023/04/07 04:04:31;;;;;;;;;;;;;;;11.91;39.22;100874.84;4971557;27;99006;-64
2023/04/07 04:06:56;;;;;;;;;;;;;;;11.91;39.08;100869.44;4970543;27;128220;-67
2023/04/07 04:09:22;;;;;;;;;;;;;;;11.92;39.18;100878.34;4968604;27;125451;-67
2023/04/07 04:11:48;;;;;;;;;;;;;;;11.93;38.94;100882.66;4972659;27;123925;-66
2023/04/07 04:14:14;;;;;;;;;;;;;;;11.91;39.07;100877.53;4953368;27;127489;-66
2023/04/07 04:16:40;;;;;;;;;;;;;;;11.92;39.07;100878.34;4970527;27;98139;-64
2023/04/07 04:19:06;;;;;;;;;;;;;;;11.92;39.09;100881.84;4971559;27;118444;-65
2023/04/07 04:21:32;;;;;;;;;;;;;;;11.91;39.19;100874.84;4967164;27;121649;-64
2023/04/07 04:23:58;;;;;;;;;;;;;;;11.91;39.07;100866.72;4967884;27;128213;-66
2023/04/07 04:26:24;;;;;;;;;;;;;;;11.91;39.21;100877.53;4970506;27;98542;-66
2023/04/07 04:28:51;;;;;;;;;;;;;;;11.91;38.98;100882.94;4970303;27;98199;-66
2023/04/07 04:31:17;;;;;;;;;;;;;;;11.92;39.18;100875.66;4954480;27;98036;-66
2023/04/07 04:33:43;;;;;;;;;;;;;;;11.92;39.00;100879.16;4968934;27;97976;-64
2023/04/07 04:36:09;;;;;;;;;;;;;;;11.93;39.00;100874.56;4952247;27;99719;-66
2023/04/07 04:38:35;;;;;;;;;;;;;;;11.94;39.04;100881.59;4967221;27;98002;-64
2023/04/07 04:41:01;;;;;;;;;;;;;;;11.95;39.00;100875.13;4969538;27;98011;-66
2023/04/07 04:43:27;;;;;;;;;;;;;;;11.97;39.08;100872.94;4964527;27;107275;-64
2023/04/07 04:45:53;;;;;;;;;;;;;;;11.98;38.98;100874.56;4968099;27;127242;-66
2023/04/07 04:48:19;;;;;;;;;;;;;;;11.99;39.25;100877.03;4970142;27;125051;-64
2023/04/07 04:50:45;;;;;;;;;;;;;;;12.02;39.11;100881.06;4967359;27;109385;-66
2023/04/07 04:53:11;;;;;;;;;;;;;;;12.04;39.10;100879.72;4964189;27;128192;-66
2023/04/07 04:55:39;;;;;;;;;;;;;;;12.08;39.00;100879.19;4966927;27;126791;-65
2023/04/07 04:58:05;;;;;;;;;;;;;;;12.11;38.93;100881.38;4967025;27;98198;-67
2023/04/07 05:00:31;;;;;;;;;;;;;;;12.13;38.84;100871.91;4967151;27;124218;-64
2023/04/07 05:02:57;;;;;;;;;;;;;;;12.17;38.87;100878.38;4968764;27;127949;-64
2023/04/07 05:05:23;;;;;;;;;;;;;;;12.20;39.02;100880.56;4966146;27;98507;-66
2023/04/07 05:07:49;;;;;;;;;;;;;;;12.24;38.88;100875.44;4966373;27;125331;-66
2023/04/07 05:10:15;;;;;;;;;;;;;;;12.28;38.96;100877.34;4965245;27;122186;-64
2023/04/07 05:12:41;;;;;;;;;;;;;;;12.34;38.88;100872.75;4967087;27;98475;-64
2023/04/07 05:15:07;;;;;;;;;;;;;;;12.37;38.76;100864.09;4969375;27;98481;-64
2023/04/07 05:17:33;;;;;;;;;;;;;;;12.48;38.69;100868.41;4968819;27;99874;-66
2023/04/07 05:19:59;;;;;;;;;;;;;;;12.59;38.84;100871.13;4965766;27;122584;-64
2023/04/07 05:22:25;;;;;;;;;;;;;;;12.70;38.59;100868.16;4966539;27;98747;-66
2023/04/07 05:24:51;;;;;;;;;;;;;;;12.81;38.58;100871.69;4964149;27;128984;-64
2023/04/07 05:27:17;;;;;;;;;;;;;;;12.93;38.48;100874.06;4967264;27;98806;-64
2023/04/07 05:29:43;;;;;;;;;;;;;;;13.03;38.48;100869.47;4967115;27;98676;-64
2023/04/07 05:32:09;;;;;;;;;;;;;;;13.12;38.72;100869.69;4965627;27;127609;-64
2023/04/07 05:34:35;;;;;;;;;;;;;;;13.18;38.74;100867.81;4967479;27;98970;-64
2023/04/07 05:37:01;;;;;;;;;;;;;;;13.24;38.58;100874.84;4957735;27;108762;-66
2023/04/07 05:39:27;;;;;;;;;;;;;;;13.29;38.46;100876.75;4966737;27;122516;-64
2023/04/07 05:41:53;;;;;;;;;;;;;;;13.35;38.72;100876.44;4964561;27;128337;-66
2023/04/07 05:44:19;;;;;;;;;;;;;;;13.42;38.50;100876.16;4962628;27;128105;-66
2023/04/07 05:46:45;;;;;;;;;;;;;;;13.49;38.51;100874.78;4949159;28;99308;-64
2023/04/07 05:49:11;;;;;;;;;;;;;;;13.56;38.19;100879.91;4929634;27;109115;-64
2023/04/07 05:51:37;;;;;;;;;;;;;;;13.62;38.51;100876.06;4968081;27;98291;-65
2023/04/07 05:54:02;;;;;;;;;;;;;;;13.70;38.47;100877.41;4966949;27;128486;-65
2023/04/07 05:56:28;;;;;;;;;;;;;;;13.75;38.45;100871.94;4955414;27;105649;-66
2023/04/07 05:58:55;;;;;;;;;;;;;;;13.80;38.41;100874.66;4967317;27;122945;-64
2023/04/07 06:01:21;;;;;;;;;;;;;;;13.83;38.22;100871.34;4950762;27;99481;-65
2023/04/07 06:03:46;;;;;;;;;;;;;;;13.86;38.58;100881.66;4964303;27;128640;-64
2023/04/07 06:06:14;;;;;;;;;;;;;;;13.90;38.49;100871.88;4964963;27;128428;-64
2023/04/07 06:08:40;;;;;;;;;;;;;;;13.95;38.29;100879.16;4965147;27;97904;-66
2023/04/07 06:11:06;;;;;;;;;;;;;;;14.03;38.22;100877.75;4967285;27;128054;-64
2023/04/07 06:13:32;;;;;;;;;;;;;;;14.14;38.53;100882.03;4967769;27;117536;-64
2023/04/07 06:15:57;;;;;;;;;;;;;;;14.28;38.01;100874.09;4968538;27;124663;-64
2023/04/07 06:18:24;;;;;;;;;;;;;;;14.44;38.15;100876.41;4965560;27;122208;-64
2023/04/07 06:20:50;;;;;;;;;;;;;;;14.62;37.88;100882.25;4967197;27;99687;-64
2023/04/07 06:23:16;;;;;;;;;;;;;;;14.79;37.84;100874.50;4966252;27;126398;-65
2023/04/07 06:25:42;;;;;;;;;;;;;;;14.97;37.72;100873.81;4965942;27;106970;-67
2023/04/07 06:28:10;;;;;;;;;;;;;;;15.13;37.99;100879.88;4966053;27;98695;-64
2023/04/07 06:30:36;;;;;;;;;;;;;;;15.26;37.70;100877.59;4962993;27;104556;-64
2023/04/07 06:33:02;;;;;;;;;;;;;;;15.38;37.68;100884.22;4947322;27;128885;-66
2023/04/07 06:35:28;;;;;;;;;;;;;;;15.51;37.87;100881.91;4965494;27;120997;-64
2023/04/07 06:37:54;;;;;;;;;;;;;;;15.63;37.74;100872.22;4968162;27;122020;-64
2023/04/07 06:40:20;;;;;;;;;;;;;;;15.78;37.79;100876.69;4947687;27;99142;-66
2023/04/07 06:42:46;;;;;;;;;;;;;;;15.99;37.73;100870.97;4964259;27;129186;-67
2023/04/07 06:45:12;;;;;;;;;;;;;;;16.13;37.75;100872.69;4963703;27;126029;-65
2023/04/07 06:47:38;;;;;;;;;;;;;;;16.19;37.67;100874.22;4966768;27;111687;-65
2023/04/07 06:50:05;;;;;;;;;;;;;;;16.30;37.94;100871.34;4968527;27;98584;-65
2023/04/07 06:52:30;;;;;;;;;;;;;;;16.33;37.64;100868.84;4968422;27;99266;-68
2023/04/07 06:54:56;;;;;;;;;;;;;;;16.31;37.82;100872.94;4965746;27;126449;-68
2023/04/07 06:57:22;;;;;;;;;;;;;;;16.34;37.87;100867.72;4953748;27;122791;-68
2023/04/07 06:59:48;;;;;;;;;;;;;;;16.43;37.72;100870.59;4947673;28;127982;-67
2023/04/07 07:02:14;;;;;;;;;;;;;;;16.56;37.71;100874.47;4965911;27;125494;-65
2023/04/07 07:04:40;;;;;;;;;;;;;;;16.67;37.66;100879.44;4947800;28;98123;-64
2023/04/07 07:07:06;;;;;;;;;;;;;;;16.75;37.73;100880.72;4936880;27;122850;-68
2023/04/07 07:09:32;;;;;;;;;;;;;;;16.80;37.67;100877.09;4943109;27;127370;-66
2023/04/07 07:12:00;;;;;;;;;;;;;;;16.83;37.83;100876.50;4936651;28;128613;-65
2023/04/07 07:14:26;;;;;;;;;;;;;;;16.84;37.91;100880.81;4949381;27;98738;-68
2023/04/07 07:16:52;;;;;;;;;;;;;;;16.85;37.89;100879.72;4968515;27;115094;-67
2023/04/07 07:19:18;;;;;;;;;;;;;;;16.85;37.92;100868.81;4953149;27;101886;-67
2023/04/07 07:21:44;;;;;;;;;;;;;;;16.87;37.92;100867.44;4968090;27;127488;-67
2023/04/07 07:24:10;;;;;;;;;;;;;;;16.92;37.78;100872.75;4950478;27;98303;-67
2023/04/07 07:26:36;;;;;;;;;;;;;;;16.95;37.81;100876.00;4953199;28;97815;-68
2023/04/07 07:29:02;;;;;;;;;;;;;;;16.92;38.00;100872.75;4966723;27;98215;-65
2023/04/07 07:31:28;;;;;;;;;;;;;;;16.93;37.88;100879.00;4970203;27;98562;-65
2023/04/07 07:33:54;;;;;;;;;;;;;;;16.93;38.02;100879.81;4970058;27;98513;-68
2023/04/07 07:36:20;;;;;;;;;;;;;;;16.94;38.08;100886.09;4952913;27;98171;-65
2023/04/07 07:38:46;;;;;;;;;;;;;;;16.91;38.04;100881.25;4956809;28;127299;-67
2023/04/07 07:41:12;;;;;;;;;;;;;;;16.92;38.03;100886.38;4966904;27;127019;-65
2023/04/07 07:43:38;;;;;;;;;;;;;;;16.95;38.00;100884.19;4969186;27;128131;-67
2023/04/07 07:46:04;;;;;;;;;;;;;;;16.96;38.04;100885.78;4968989;27;122531;-65
2023/04/07 07:48:30;;;;;;;;;;;;;;;16.96;38.22;100894.75;4966356;27;100362;-67
2023/04/07 07:50:56;;;;;;;;;;;;;;;16.97;38.11;100896.38;4957853;28;98434;-65
2023/04/07 07:53:22;;;;;;;;;;;;;;;17.01;38.21;100894.66;4967891;27;114673;-65
2023/04/07 07:55:48;;;;;;;;;;;;;;;17.05;38.07;100895.69;4967133;27;98115;-67
2023/04/07 07:58:14;;;;;;;;;;;;;;;17.11;38.02;100899.13;4969170;27;98770;-67
2023/04/07 08:00:40;;;;;;;;;;;;;;;17.14;38.11;100901.25;4970049;27;98083;-67
2023/04/07 08:03:06;;;;;;;;;;;;;;;17.19;38.01;100903.88;4967085;27;127719;-65
2023/04/07 08:05:32;;;;;;;;;;;;;;;17.26;38.22;100898.03;4968060;27;119489;-68
2023/04/07 08:07:58;;;;;;;;;;;;;;;17.33;38.08;100898.44;4968277;27;127287;-65
2023/04/07 08:10:24;;;;;;;;;;;;;;;17.41;38.06;100901.28;4966799;27;126939;-68
2023/04/07 08:12:50;;;;;;;;;;;;;;;17.59;37.88;100901.47;4970893;27;98511;-65
2023/04/07 08:15:16;;;;;;;;;;;;;;;17.73;37.86;100899.53;4965183;27;124122;-67
2023/04/07 08:17:41;;;;;;;;;;;;;;;17.80;37.84;100897.25;4951611;28;128128;-66
2023/04/07 08:20:09;;;;;;;;;;;;;;;17.83;37.88;100896.63;4968621;27;128768;-66
2023/04/07 08:22:35;;;;;;;;;;;;;;;17.86;37.79;100892.47;4968228;27;98102;-65
2023/04/07 08:25:02;;;;;;;;;;;;;;;17.87;37.80;100896.81;4970853;27;118081;-67
2023/04/07 08:27:28;;;;;;;;;;;;;;;17.87;38.08;100905.00;4970068;27;102921;-67
2023/04/07 08:30:01;;;;;;;;;;;;;;;17.86;37.90;100906.91;4967402;27;114882;-68
2023/04/07 08:32:40;;;;;;;;;;;;;;;17.87;37.90;100903.06;4968707;27;100168;-65
2023/04/07 08:35:06;;;;;;;;;;;;;;;17.91;37.83;100908.72;4966671;27;98000;-66
2023/04/07 08:37:32;;;;;;;;;;;;;;;17.92;37.88;100918.53;4964346;27;115179;-65
2023/04/07 08:39:59;;;;;;;;;;;;;;;17.92;37.96;100915.81;4968708;27;99153;-67
2023/04/07 08:42:27;;;;;;;;;;;;;;;17.93;38.06;100911.16;4951333;27;98791;-65
2023/04/07 08:44:54;;;;;;;;;;;;;;;17.91;37.95;100919.63;4967346;27;98904;-67
2023/04/07 08:47:20;;;;;;;;;;;;;;;17.89;38.13;100919.94;4966066;27;98269;-67
2023/04/07 08:49:46;;;;;;;;;;;;;;;17.86;38.03;100917.03;4930653;28;128201;-67
2023/04/07 08:52:12;;;;;;;;;;;;;;;17.84;38.19;100919.22;4933680;27;125493;-66
2023/04/07 08:54:38;;;;;;;;;;;;;;;17.82;38.28;100907.84;4914432;28;121305;-65
2023/04/07 08:57:04;;;;;;;;;;;;;;;17.79;38.06;100911.16;4967751;27;98288;-67
2023/04/07 08:59:32;;;;;;;;;;;;;;;17.80;38.06;100916.34;4966180;27;98348;-65
2023/04/07 09:01:58;;;;;;;;;;;;;;;17.82;38.11;100914.09;4964513;27;98370;-67
2023/04/07 09:04:24;;;;;;;;;;;;;;;17.87;37.99;100915.91;4965371;27;122878;-67
2023/04/07 09:06:50;;;;;;;;;;;;;;;17.93;38.22;100911.16;4964941;27;98381;-67
2023/04/07 09:09:16;;;;;;;;;;;;;;;17.99;38.16;100916.19;4968960;27;122008;-65
2023/04/07 09:11:42;;;;;;;;;;;;;;;18.02;38.06;100914.78;4968064;27;98403;-67
2023/04/07 09:14:08;;;;;;;;;;;;;;;18.04;38.11;100913.38;4967378;27;98170;-65
2023/04/07 09:16:34;;;;;;;;;;;;;;;18.08;38.03;100908.09;4965983;27;98910;-65
2023/04/07 09:19:00;;;;;;;;;;;;;;;18.09;37.95;100904.25;4965851;27;99303;-67
2023/04/07 09:21:26;;;;;;;;;;;;;;;18.13;38.08;100906.06;4968407;27;127249;-67
2023/04/07 09:23:52;;;;;;;;;;;;;;;18.17;38.16;100903.53;4966567;27;97818;-66
2023/04/07 09:26:23;;;;;;;;;;;;;;;18.19;38.18;100906.75;4964716;27;128205;-67
2023/04/07 09:28:53;;;;;;;;;;;;;;;18.22;38.03;100914.31;4951107;28;98811;-66
2023/04/07 09:31:20;;;;;;;;;;;;;;;18.27;38.05;100906.00;4966992;27;98407;-65
2023/04/07 09:33:47;;;;;;;;;;;;;;;18.34;37.93;100897.41;4967896;27;98159;-66
2023/04/07 09:36:13;;;;;;;;;;;;;;;18.43;37.73;100897.47;4964414;27;99177;-67
2023/04/07 09:38:39;;;;;;;;;;;;;;;18.55;37.79;100894.97;4966655;27;127363;-67
2023/04/07 09:41:09;;;;;;;;;;;;;;;18.70;37.68;100902.81;4945801;28;98157;-69
2023/04/07 09:43:37;;;;;;;;;;;;;;;18.89;37.71;100897.97;4964464;27;97769;-67
2023/04/07 09:46:13;;;;;;;;;;;;;;;19.10;37.55;100894.72;4967726;27;98979;-67
2023/04/07 09:48:39;;;;;;;;;;;;;;;19.40;37.25;100884.06;4965541;27;98426;-68
2023/04/07 09:51:12;;;;;;;;;;;;;;;19.79;37.10;100877.75;4965965;27;98205;-65
2023/04/07 09:53:46;;;;;;;;;;;;;;;20.32;36.79;100873.94;4967491;27;98176;-66
2023/04/07 09:56:21;;;;;;;;;;;;;;;21.27;35.91;100870.19;4967517;27;99729;-66
2023/04/07 09:58:47;;;;;;;;;;;;;;;22.06;35.53;100877.63;4965565;27;99943;-67
2023/04/07 10:01:15;;;;;;;;;;;;;;;22.19;35.54;100877.72;4967776;27;98644;-68
2023/04/07 10:03:41;;;;;;;;;;;;;;;22.24;35.94;100880.25;4964102;27;99466;-66
2023/04/07 10:06:07;;;;;;;;;;;;;;;22.19;36.07;100883.19;4967039;27;112806;-66
2023/04/07 10:08:35;;;;;;;;;;;;;;;22.11;36.38;100886.78;4967990;27;99274;-66
2023/04/07 10:11:07;;;;;;;;;;;;;;;22.00;36.77;100884.44;4966660;27;97893;-68
2023/04/07 10:13:38;;;;;;;;;;;;;;;22.02;36.80;100881.38;4965421;27;98249;-68
2023/04/07 10:16:05;;;;;;;;;;;;;;;22.11;36.56;100879.34;4952167;27;111858;-66
2023/04/07 10:18:35;;;;;;;;;;;;;;;22.30;36.54;100873.41;4965076;27;98759;-66
2023/04/07 10:21:02;;;;;;;;;;;;;;;22.49;36.50;100878.41;4968063;27;102877;-66
2023/04/07 10:23:43;;;;;;;;;;;;;;;22.61;36.52;100883.16;4967157;27;97807;-66
2023/04/07 10:26:09;;;;;;;;;;;;;;;22.92;36.33;100877.19;4949947;28;98556;-68
2023/04/07 10:28:37;;;;;;;;;;;;;;;22.92;36.57;100882.69;4948972;27;99115;-69
2023/04/07 10:31:03;;;;;;;;;;;;;;;22.86;36.54;100879.31;4947259;27;98115;-69
2023/04/07 10:33:46;;;;;;;;;;;;;;;22.83;36.59;100876.44;4953870;27;123199;-66
2023/04/07 10:36:12;;;;;;;;;;;;;;;22.87;36.68;100877.38;4964842;27;99152;-69
2023/04/07 10:38:37;;;;;;;;;;;;;;;22.96;36.79;100883.63;4965939;27;98592;-66
2023/04/07 10:41:38;;;;;;;;;;;;;;;23.01;36.61;100878.69;4964682;27;126257;-66
2023/04/07 10:44:08;;;;;;;;;;;;;;;23.25;36.51;100871.63;4943313;28;109100;-66
2023/04/07 10:46:50;;;;;;;;;;;;;;;23.43;36.45;100874.94;4966402;27;98530;-68
2023/04/07 10:49:16;;;;;;;;;;;;;;;23.73;36.21;100870.81;4967407;27;98184;-66
2023/04/07 10:51:42;;;;;;;;;;;;;;;24.00;36.03;100868.47;4950792;28;112825;-68
2023/04/07 10:54:19;;;;;;;;;;;;;;;24.31;35.96;100875.25;4951625;27;122800;-69
2023/04/07 10:57:09;;;;;;;;;;;;;;;25.56;34.92;100864.72;4967590;27;98245;-67
2023/04/07 10:59:35;;;;;;;;;;;;;;;26.87;34.11;100869.41;4970356;27;99914;-67
2023/04/07 11:02:13;;;;;;;;;;;;;;;26.48;34.73;100871.44;4957594;28;98495;-67
2023/04/07 11:04:42;;;;;;;;;;;;;;;26.42;35.00;100864.59;4969977;27;97954;-67
2023/04/07 11:07:09;;;;;;;;;;;;;;;26.22;35.55;100863.81;4969823;27;99461;-67
2023/04/07 11:09:35;;;;;;;;;;;;;;;25.95;35.95;100862.84;4952024;27;99129;-67
2023/04/07 11:12:01;;;;;;;;;;;;;;;25.71;35.99;100861.91;4966799;27;98604;-67
2023/04/07 11:14:31;;;;;;;;;;;;;;;25.56;36.21;100860.00;4969700;27;97973;-67
2023/04/07 11:16:57;;;;;;;;;;;;;;;25.38;36.33;100856.00;4969306;27;98925;-67
2023/04/07 11:19:23;;;;;;;;;;;;;;;25.18;36.74;100857.91;4968005;27;98113;-69
2023/04/07 11:21:49;;;;;;;;;;;;;;;24.95;36.71;100855.72;4953744;28;124843;-69
2023/04/07 11:24:36;;;;;;;;;;;;;;;24.82;36.89;100853.44;4969965;27;120594;-67
2023/04/07 11:27:02;;;;;;;;;;;;;;;24.80;36.71;100851.03;4968922;27;98631;-68
2023/04/07 11:29:29;;;;;;;;;;;;;;;24.81;36.67;100852.63;4949935;27;99487;-67
2023/04/07 11:31:56;;;;;;;;;;;;;;;24.88;36.69;100849.25;4949649;28;98072;-67
2023/04/07 11:34:23;;;;;;;;;;;;;;;25.15;36.45;100845.66;4955120;27;98324;-68
2023/04/07 11:36:49;;;;;;;;;;;;;;;25.40;36.22;100848.19;4932659;28;99097;-69
2023/04/07 11:39:20;;;;;;;;;;;;;;;25.51;35.99;100853.97;4970186;27;125920;-67
2023/04/07 11:41:47;;;;;;;;;;;;;;;25.68;36.21;100848.03;4970031;27;98120;-68
2023/04/07 11:44:13;;;;;;;;;;;;;;;25.85;36.01;100853.16;4970365;27;110436;-67
2023/04/07 11:47:04;;;;;;;;;;;;;;;25.94;36.10;100847.47;4968133;27;99790;-67
2023/04/07 11:49:31;;;;;;;;;;;;;;;25.99;36.17;100847.16;4967923;27;98382;-67
2023/04/07 11:51:59;;;;;;;;;;;;;;;25.99;36.19;100846.38;4969596;27;98377;-68
2023/04/07 11:54:25;;;;;;;;;;;;;;;25.95;36.22;100849.84;4969722;27;98193;-67
2023/04/07 11:56:54;;;;;;;;;;;;;;;25.81;36.20;100851.50;4936068;28;98430;-69
2023/04/07 11:59:21;;;;;;;;;;;;;;;25.56;36.58;100848.97;4949379;27;98217;-67
2023/04/07 12:01:49;;;;;;;;;;;;;;;25.33;36.99;100854.34;4946721;28;98327;-68
2023/04/07 12:04:16;;;;;;;;;;;;;;;25.19;36.99;100852.06;4970121;27;97971;-69
2023/04/07 12:06:42;;;;;;;;;;;;;;;25.04;36.86;100852.81;4954982;28;99857;-68
2023/04/07 12:09:24;;;;;;;;;;;;;;;24.89;37.32;100853.63;4950981;27;99273;-69
2023/04/07 12:11:50;;;;;;;;;;;;;;;24.73;37.37;100846.13;4969124;27;98153;-67
2023/04/07 12:14:16;;;;;;;;;;;;;;;24.61;37.27;100850.94;4967057;27;122623;-68
2023/04/07 12:16:42;;;;;;;;;;;;;;;24.46;37.34;100852.50;4965131;27;126983;-67
2023/04/07 12:19:08;;;;;;;;;;;;;;;24.30;37.51;100849.66;4967037;27;99147;-68
2023/04/07 12:21:34;;;;;;;;;;;;;;;24.19;37.30;100848.56;4969050;27;127494;-68
2023/04/07 12:24:00;;;;;;;;;;;;;;;24.08;37.47;100848.25;4965812;27;122916;-68
2023/04/07 12:26:26;;;;;;;;;;;;;;;23.97;37.40;100842.44;4968724;27;98755;-68
2023/04/07 12:28:53;;;;;;;;;;;;;;;23.90;37.32;100847.75;4965567;27;117696;-67
2023/04/07 12:31:19;;;;;;;;;;;;;;;23.85;37.65;100849.91;4968087;27;98063;-67